Arita Maru — JD2435 — position and weather

sailwx.info

Track history (hours):
 
Tides and Currents Weather Stations Pressure Air Temp Water Temp Dewpoint Dewpoint Depression Visibility Wind Speed Wind Dir Waves Ship Positions

Arita Maru

Last reported at 2018-Feb-17 23:55 UTC. Time now 2018-Feb-24 19:46 UTC.
Position N 35°02' E 139°43'.

Length 73 m; draft 4.3 m.

Type: Cargo ship. MMSI: 431000234.

Date/timePositionNaut miles runAvg speedWind from/ knotsBaromVisibWave heightAir tempDewpointWater temp
2018-Feb-17 23:55N 35°02' E 139°43'511.5
2018-Feb-17 23:30N 35°07' E 139°44'611.7
2018-Feb-17 23:01N 35°12' E 139°46'510.8
2018-Feb-17 22:30N 35°18' E 139°44'4 8.7
2018-Feb-17 22:01N 35°21' E 139°40'0 0.2
2018-Feb-17 21:29N 35°20' E 139°40'0 0.0
2018-Feb-17 20:59N 35°20' E 139°40'0 0.0
2018-Feb-17 20:29N 35°20' E 139°40'0 0.0
2018-Feb-17 19:59N 35°20' E 139°40'0 0.0
2018-Feb-17 19:29N 35°20' E 139°40'0 0.0
2018-Feb-17 18:59N 35°20' E 139°40'0 0.0
2018-Feb-17 18:29N 35°20' E 139°40'0 0.0
2018-Feb-17 17:59N 35°20' E 139°40'0 0.0
2018-Feb-17 17:29N 35°20' E 139°40'0 0.0
2018-Feb-17 16:59N 35°20' E 139°40'0 0.0
2018-Feb-17 16:29N 35°20' E 139°40'0 0.0
2018-Feb-17 15:59N 35°20' E 139°40'0 0.0
2018-Feb-17 15:29N 35°20' E 139°40'0 0.0
2018-Feb-17 14:59N 35°20' E 139°40'0 0.0
2018-Feb-17 14:29N 35°20' E 139°40'0 0.0
2018-Feb-17 13:59N 35°20' E 139°40'0 0.0
2018-Feb-17 13:29N 35°20' E 139°40'0 0.0
2018-Feb-17 12:59N 35°20' E 139°40'0 0.0
2018-Feb-17 12:29N 35°20' E 139°40'0 0.0
2018-Feb-17 11:59N 35°20' E 139°40'0 0.0
2018-Feb-17 11:29N 35°20' E 139°40'0 0.0
2018-Feb-17 10:59N 35°20' E 139°40'0 0.0
2018-Feb-17 10:29N 35°20' E 139°40'0 0.0
2018-Feb-17 09:59N 35°20' E 139°40'0 0.0
2018-Feb-17 09:29N 35°20' E 139°40'0 0.0
2018-Feb-17 08:59N 35°20' E 139°40'0 0.0
2018-Feb-17 08:29N 35°20' E 139°40'0 0.0
2018-Feb-17 07:59N 35°20' E 139°40'0 0.0
2018-Feb-17 07:29N 35°20' E 139°40'0 0.0
2018-Feb-17 06:59N 35°20' E 139°40'0 0.0
2018-Feb-17 06:29N 35°20' E 139°40'0 0.0
2018-Feb-17 05:59N 35°20' E 139°40'0 0.1
2018-Feb-17 05:29N 35°20' E 139°40'0 0.1
2018-Feb-17 04:59N 35°20' E 139°40'0 0.2
2018-Feb-17 04:29N 35°21' E 139°41'0 0.1
2018-Feb-17 03:59N 35°21' E 139°40'0 0.1
2018-Feb-17 03:29N 35°20' E 139°40'0 0.1
2018-Feb-17 02:59N 35°20' E 139°40'0 0.1
2018-Feb-17 02:26N 35°20' E 139°40'0 0.0
2018-Feb-17 01:59N 35°20' E 139°40'0 0.0
2018-Feb-17 01:29N 35°20' E 139°40'0 0.0
2018-Feb-17 00:59N 35°20' E 139°40'0 0.0
2018-Feb-17 00:29N 35°20' E 139°40'0 0.0
2018-Feb-16 23:59N 35°20' E 139°40'0 0.0
2018-Feb-16 23:29N 35°20' E 139°40'0 0.1
2018-Feb-16 23:00N 35°20' E 139°41'510.4
2018-Feb-16 22:30N 35°25' E 139°44'5 9.4
2018-Feb-16 22:01N 35°23' E 139°49'2 4.9
2018-Feb-16 21:30N 35°21' E 139°51'0 0.1
2018-Feb-16 20:57N 35°21' E 139°51'0 0.1
2018-Feb-16 20:30N 35°21' E 139°51'0 0.3
2018-Feb-16 19:59N 35°21' E 139°51'0 0.3
2018-Feb-16 19:29N 35°21' E 139°51'0 0.1
2018-Feb-16 18:59N 35°21' E 139°51'0 0.0
2018-Feb-16 17:11N 35°21' E 139°51'0 0.1
2018-Feb-16 16:47N 35°21' E 139°51'0 0.0
2018-Feb-16 13:26N 35°21' E 139°51'0 0.1
2018-Feb-16 12:59N 35°21' E 139°51'0 0.1
2018-Feb-16 12:29N 35°21' E 139°51'0 0.1
2018-Feb-16 11:20N 35°21' E 139°51'0 0.3
2018-Feb-16 10:56N 35°21' E 139°51'0 0.2
2018-Feb-16 10:29N 35°21' E 139°51'0 0.1
2018-Feb-16 09:59N 35°21' E 139°51'0 0.1
2018-Feb-16 09:23N 35°21' E 139°51'0 1.3
2018-Feb-16 09:00N 35°21' E 139°51'0 0.1
2018-Feb-16 08:30N 35°21' E 139°51'2 5.0
2018-Feb-16 08:00N 35°24' E 139°49'611.6
2018-Feb-16 07:30N 35°29' E 139°51'612.4
2018-Feb-16 07:00N 35°32' E 139°58'612.5
2018-Feb-16 06:31N 35°35' E 140°04'1 2.8
2018-Feb-16 06:00N 35°37' E 140°05'0 0.0
2018-Feb-16 05:28N 35°37' E 140°05'0 0.0
2018-Feb-16 04:52N 35°37' E 140°05'0 0.0
2018-Feb-16 04:28N 35°37' E 140°05'0 0.0
2018-Feb-16 03:58N 35°37' E 140°05'0 0.0
2018-Feb-16 03:28N 35°37' E 140°05'0 0.0
2018-Feb-16 02:58N 35°37' E 140°05'0 0.0
2018-Feb-16 02:28N 35°37' E 140°05'0 0.0
2018-Feb-16 01:58N 35°37' E 140°05'0 0.0
2018-Feb-16 01:30N 35°37' E 140°05'1 1.1
2018-Feb-16 01:00N 35°36' E 140°05'3 6.6
2018-Feb-16 00:30N 35°34' E 140°02'4 8.1
2018-Feb-16 00:00N 35°32' E 139°58'510.5
2018-Feb-15 23:30N 35°29' E 139°53'611.0
2018-Feb-15 23:00N 35°25' E 139°48'510.7
2018-Feb-15 22:30N 35°21' E 139°45'510.2
2018-Feb-15 22:01N 35°16' E 139°47'610.9
2018-Feb-15 21:29N 35°10' E 139°47'910.6
2018-Feb-15 20:39N 35°03' E 139°40'211.1
2018-Feb-15 20:29N 35°02' E 139°38'3412.0
2018-Feb-15 17:42N 34°42' E 139°06'210.9
2018-Feb-15 17:29N 34°40' E 139°03'710.5
2018-Feb-15 16:49N 34°35' E 138°57'2311.8
2018-Feb-15 14:51N 34°34' E 138°29'8311.4
2018-Feb-15 07:34N 34°42' E 136°49'112.2
2018-Feb-15 07:29N 34°43' E 136°48'611.8
2018-Feb-15 07:00N 34°48' E 136°46'611.8
2018-Feb-15 06:30N 34°54' E 136°46'611.5
2018-Feb-15 06:00N 34°59' E 136°49'510.0
2018-Feb-15 05:31N 35°03' E 136°53'0 0.1
2018-Feb-15 05:00N 35°03' E 136°53'0 0.0
2018-Feb-15 04:30N 35°03' E 136°53'0 0.0
2018-Feb-15 04:00N 35°03' E 136°53'0 0.0
2018-Feb-15 03:30N 35°03' E 136°53'0 0.0
2018-Feb-15 03:00N 35°03' E 136°53'0 0.0
2018-Feb-15 02:30N 35°03' E 136°53'1 2.9
2018-Feb-15 02:00N 35°04' E 136°52'1 1.1
2018-Feb-15 01:28N 35°04' E 136°51'0 0.0
2018-Feb-15 00:58N 35°04' E 136°51'0 0.0
2018-Feb-15 00:28N 35°04' E 136°51'0 0.0
2018-Feb-14 23:58N 35°04' E 136°51'0 0.0
2018-Feb-14 23:28N 35°04' E 136°51'0 0.0
2018-Feb-14 22:58N 35°04' E 136°51'0 0.0
2018-Feb-14 22:28N 35°04' E 136°51'0 0.1
2018-Feb-14 21:58N 35°04' E 136°51'0 0.0
2018-Feb-14 21:25N 35°04' E 136°51'0 0.0
2018-Feb-14 20:58N 35°04' E 136°51'0 0.0
2018-Feb-14 20:28N 35°04' E 136°51'0 0.0
2018-Feb-14 19:58N 35°04' E 136°51'0 0.0
2018-Feb-14 19:28N 35°04' E 136°51'0 0.0
2018-Feb-14 18:58N 35°04' E 136°51'0 0.0
2018-Feb-14 18:28N 35°04' E 136°51'0 0.0
2018-Feb-14 17:58N 35°04' E 136°51'0 0.0
2018-Feb-14 17:28N 35°04' E 136°51'0 0.0
2018-Feb-14 16:58N 35°04' E 136°51'0 0.0
2018-Feb-14 16:28N 35°04' E 136°51'0 0.0
2018-Feb-14 15:58N 35°04' E 136°51'0 0.0
2018-Feb-14 15:28N 35°04' E 136°51'0 0.0
2018-Feb-14 14:58N 35°04' E 136°51'0 0.0
2018-Feb-14 14:28N 35°04' E 136°51'0 0.0
2018-Feb-14 13:58N 35°04' E 136°51'0 0.0
2018-Feb-14 13:28N 35°04' E 136°51'0 0.0
2018-Feb-14 12:58N 35°04' E 136°51'0 0.0
2018-Feb-14 12:28N 35°04' E 136°51'0 0.0
2018-Feb-14 11:58N 35°04' E 136°51'0 0.0
2018-Feb-14 11:28N 35°04' E 136°51'0 0.0
2018-Feb-14 10:58N 35°04' E 136°51'0 0.0
2018-Feb-14 10:28N 35°04' E 136°51'0 0.0
2018-Feb-14 09:58N 35°04' E 136°51'0 0.0
2018-Feb-14 09:28N 35°04' E 136°51'0 0.0
2018-Feb-14 08:58N 35°04' E 136°51'0 0.0
2018-Feb-14 08:28N 35°04' E 136°51'0 0.0
2018-Feb-14 07:58N 35°04' E 136°51'0 0.0
2018-Feb-14 07:28N 35°04' E 136°51'0 0.0
2018-Feb-14 06:58N 35°04' E 136°51'0 0.0
2018-Feb-14 06:28N 35°04' E 136°51'0 0.0
2018-Feb-14 05:58N 35°04' E 136°51'0 0.0
2018-Feb-14 05:28N 35°04' E 136°51'0 0.0
2018-Feb-14 04:58N 35°04' E 136°51'0 0.0
2018-Feb-14 04:28N 35°04' E 136°51'0 0.0
2018-Feb-14 03:55N 35°04' E 136°51'0 0.0
2018-Feb-14 03:28N 35°04' E 136°51'0 0.0
2018-Feb-14 02:58N 35°04' E 136°51'0 0.0
2018-Feb-14 02:28N 35°04' E 136°51'0 0.0
2018-Feb-14 01:55N 35°04' E 136°51'0 0.0
2018-Feb-14 01:28N 35°04' E 136°51'0 0.0
2018-Feb-14 00:58N 35°04' E 136°51'0 0.0
2018-Feb-14 00:28N 35°04' E 136°51'0 0.0
2018-Feb-13 23:55N 35°04' E 136°51'0 0.0
2018-Feb-13 23:28N 35°04' E 136°51'0 0.0
2018-Feb-13 22:58N 35°04' E 136°51'1 1.7
2018-Feb-13 22:31N 35°03' E 136°52'510.5
2018-Feb-13 22:00N 34°59' E 136°48'1 1.2
2018-Feb-13 21:30N 34°59' E 136°48'0 0.0
2018-Feb-13 21:00N 34°59' E 136°48'0 0.0
2018-Feb-13 20:30N 34°59' E 136°48'0 0.0
2018-Feb-13 20:00N 34°59' E 136°48'0 0.0
2018-Feb-13 19:30N 34°59' E 136°48'0 0.0
2018-Feb-13 19:00N 34°59' E 136°48'0 0.0
2018-Feb-13 18:30N 34°59' E 136°48'0 0.5
2018-Feb-13 18:00N 34°58' E 136°48'510.7
2018-Feb-13 17:31N 34°53' E 136°47'611.3
2018-Feb-13 17:00N 34°47' E 136°48'611.2
2018-Feb-13 16:31N 34°42' E 136°50'101 7.8
2018-Feb-13 03:31N 33°47' E 135°07'212.1
2018-Feb-13 03:22N 33°49' E 135°06'512.3
2018-Feb-13 02:56N 33°52' E 135°01'512.0
2018-Feb-13 02:30N 33°56' E 134°57'1012.0
2018-Feb-13 01:41N 34°04' E 134°49'312.0
2018-Feb-13 01:28N 34°06' E 134°47'1212.6
2018-Feb-13 00:32N 34°15' E 134°38'211.7
2018-Feb-13 00:20N 34°16' E 134°36'411.4
2018-Feb-13 00:00N 34°18' E 134°32'611.6
2018-Feb-12 23:30N 34°20' E 134°25'85 9.5
2018-Feb-12 14:31N 33°60' E 132°45'0 8.8
2018-Feb-12 14:30N 33°60' E 132°45'510.6
2018-Feb-12 14:00N 33°56' E 132°41'511.1
2018-Feb-12 13:30N 33°53' E 132°35'911.2
2018-Feb-12 12:40N 33°50' E 132°24'211.4
2018-Feb-12 12:30N 33°50' E 132°22'1511.4
2018-Feb-12 11:14N 33°46' E 132°05'310.9
2018-Feb-12 11:00N 33°46' E 132°02'611.4
2018-Feb-12 10:29N 33°51' E 131°58'611.5
2018-Feb-12 09:59N 33°56' E 131°56'1 0.1
2018-Feb-11 19:01N 33°57' E 131°56'0 0.0
2018-Feb-11 18:31N 33°57' E 131°56'0 0.0
2018-Feb-11 18:25N 33°57' E 131°56'0 0.0
2018-Feb-11 17:55N 33°57' E 131°56'0 0.0
2018-Feb-11 17:25N 33°57' E 131°56'0 0.0
2018-Feb-11 16:49N 33°57' E 131°56'0 0.0
2018-Feb-11 15:25N 33°57' E 131°56'0 0.0
2018-Feb-11 13:01N 33°57' E 131°56'0 0.0
2018-Feb-10 22:15N 33°57' E 131°56'1 1.5
2018-Feb-10 21:45N 33°57' E 131°55'0 0.0
2018-Feb-10 21:27N 33°57' E 131°55'0 0.0
2018-Feb-10 20:57N 33°57' E 131°55'0 0.0
2018-Feb-10 20:27N 33°57' E 131°55'0 0.0
2018-Feb-10 19:39N 33°57' E 131°55'0 0.0
2018-Feb-10 19:21N 33°57' E 131°55'0 0.1
2018-Feb-10 18:51N 33°57' E 131°55'0 0.1
2018-Feb-10 18:15N 33°57' E 131°55'0 0.1
2018-Feb-10 17:51N 33°57' E 131°55'0 0.0
2018-Feb-10 17:27N 33°57' E 131°55'0 0.0
2018-Feb-10 16:51N 33°57' E 131°55'0 0.2
2018-Feb-10 16:15N 33°57' E 131°55'0 0.2
2018-Feb-10 15:51N 33°57' E 131°55'0 0.1
2018-Feb-10 15:21N 33°57' E 131°55'0 0.0
2018-Feb-10 14:21N 33°57' E 131°55'0 0.0
2018-Feb-10 13:51N 33°57' E 131°55'0 0.0
2018-Feb-10 13:27N 33°57' E 131°55'0 0.0
2018-Feb-10 12:57N 33°57' E 131°55'0 0.0
2018-Feb-10 12:27N 33°57' E 131°55'0 0.0
2018-Feb-10 11:57N 33°57' E 131°55'0 0.0
2018-Feb-10 11:27N 33°57' E 131°55'0 0.0
2018-Feb-10 10:51N 33°57' E 131°55'0 0.0
2018-Feb-10 10:27N 33°57' E 131°55'0 0.1
2018-Feb-10 09:27N 33°57' E 131°55'0 0.1
2018-Feb-10 08:45N 33°57' E 131°55'0 0.1
2018-Feb-10 08:21N 33°57' E 131°55'35 0.7
2018-Feb-08 07:00N 34°18' E 132°28'1 0.3
2018-Feb-08 02:30N 34°18' E 132°29'611.2
2018-Feb-08 02:01N 34°13' E 132°30'710.3
2018-Feb-08 01:21N 34°07' E 132°27'510.0
2018-Feb-08 00:49N 34°03' E 132°31'310.4
2018-Feb-08 00:31N 34°03' E 132°34'611.8
2018-Feb-08 00:00N 34°06' E 132°41'  
Track history (hours):
 
Tides and Currents Weather Stations Pressure Air Temp Water Temp Dewpoint Dewpoint Depression Visibility Wind Speed Wind Dir Waves Ship Positions

Arita Maru

Last reported at 2018-Feb-17 23:55 UTC. Time now 2018-Feb-24 19:46 UTC.
Position N 35°02' E 139°43'.

Length 73 m; draft 4.3 m.

Type: Cargo ship. MMSI: 431000234.

Date/timePositionNaut miles runAvg speedWind from/ knotsBaromVisibWave heightAir tempDewpointWater temp
2018-Feb-17 23:55N 35°02' E 139°43'511.5
2018-Feb-17 23:30N 35°07' E 139°44'611.7
2018-Feb-17 23:01N 35°12' E 139°46'510.8
2018-Feb-17 22:30N 35°18' E 139°44'4 8.7
2018-Feb-17 22:01N 35°21' E 139°40'0 0.2
2018-Feb-17 21:29N 35°20' E 139°40'0 0.0
2018-Feb-17 20:59N 35°20' E 139°40'0 0.0
2018-Feb-17 20:29N 35°20' E 139°40'0 0.0
2018-Feb-17 19:59N 35°20' E 139°40'0 0.0
2018-Feb-17 19:29N 35°20' E 139°40'0 0.0
2018-Feb-17 18:59N 35°20' E 139°40'0 0.0
2018-Feb-17 18:29N 35°20' E 139°40'0 0.0
2018-Feb-17 17:59N 35°20' E 139°40'0 0.0
2018-Feb-17 17:29N 35°20' E 139°40'0 0.0
2018-Feb-17 16:59N 35°20' E 139°40'0 0.0
2018-Feb-17 16:29N 35°20' E 139°40'0 0.0
2018-Feb-17 15:59N 35°20' E 139°40'0 0.0
2018-Feb-17 15:29N 35°20' E 139°40'0 0.0
2018-Feb-17 14:59N 35°20' E 139°40'0 0.0
2018-Feb-17 14:29N 35°20' E 139°40'0 0.0
2018-Feb-17 13:59N 35°20' E 139°40'0 0.0
2018-Feb-17 13:29N 35°20' E 139°40'0 0.0
2018-Feb-17 12:59N 35°20' E 139°40'0 0.0
2018-Feb-17 12:29N 35°20' E 139°40'0 0.0
2018-Feb-17 11:59N 35°20' E 139°40'0 0.0
2018-Feb-17 11:29N 35°20' E 139°40'0 0.0
2018-Feb-17 10:59N 35°20' E 139°40'0 0.0
2018-Feb-17 10:29N 35°20' E 139°40'0 0.0
2018-Feb-17 09:59N 35°20' E 139°40'0 0.0
2018-Feb-17 09:29N 35°20' E 139°40'0 0.0
2018-Feb-17 08:59N 35°20' E 139°40'0 0.0
2018-Feb-17 08:29N 35°20' E 139°40'0 0.0
2018-Feb-17 07:59N 35°20' E 139°40'0 0.0
2018-Feb-17 07:29N 35°20' E 139°40'0 0.0
2018-Feb-17 06:59N 35°20' E 139°40'0 0.0
2018-Feb-17 06:29N 35°20' E 139°40'0 0.0
2018-Feb-17 05:59N 35°20' E 139°40'0 0.1
2018-Feb-17 05:29N 35°20' E 139°40'0 0.1
2018-Feb-17 04:59N 35°20' E 139°40'0 0.2
2018-Feb-17 04:29N 35°21' E 139°41'0 0.1
2018-Feb-17 03:59N 35°21' E 139°40'0 0.1
2018-Feb-17 03:29N 35°20' E 139°40'0 0.1
2018-Feb-17 02:59N 35°20' E 139°40'0 0.1
2018-Feb-17 02:26N 35°20' E 139°40'0 0.0
2018-Feb-17 01:59N 35°20' E 139°40'0 0.0
2018-Feb-17 01:29N 35°20' E 139°40'0 0.0
2018-Feb-17 00:59N 35°20' E 139°40'0 0.0
2018-Feb-17 00:29N 35°20' E 139°40'0 0.0
2018-Feb-16 23:59N 35°20' E 139°40'0 0.0
2018-Feb-16 23:29N 35°20' E 139°40'0 0.1
2018-Feb-16 23:00N 35°20' E 139°41'510.4
2018-Feb-16 22:30N 35°25' E 139°44'5 9.4
2018-Feb-16 22:01N 35°23' E 139°49'2 4.9
2018-Feb-16 21:30N 35°21' E 139°51'0 0.1
2018-Feb-16 20:57N 35°21' E 139°51'0 0.1
2018-Feb-16 20:30N 35°21' E 139°51'0 0.3
2018-Feb-16 19:59N 35°21' E 139°51'0 0.3
2018-Feb-16 19:29N 35°21' E 139°51'0 0.1
2018-Feb-16 18:59N 35°21' E 139°51'0 0.0
2018-Feb-16 17:11N 35°21' E 139°51'0 0.1
2018-Feb-16 16:47N 35°21' E 139°51'0 0.0
2018-Feb-16 13:26N 35°21' E 139°51'0 0.1
2018-Feb-16 12:59N 35°21' E 139°51'0 0.1
2018-Feb-16 12:29N 35°21' E 139°51'0 0.1
2018-Feb-16 11:20N 35°21' E 139°51'0 0.3
2018-Feb-16 10:56N 35°21' E 139°51'0 0.2
2018-Feb-16 10:29N 35°21' E 139°51'0 0.1
2018-Feb-16 09:59N 35°21' E 139°51'0 0.1
2018-Feb-16 09:23N 35°21' E 139°51'0 1.3
2018-Feb-16 09:00N 35°21' E 139°51'0 0.1
2018-Feb-16 08:30N 35°21' E 139°51'2 5.0
2018-Feb-16 08:00N 35°24' E 139°49'611.6
2018-Feb-16 07:30N 35°29' E 139°51'612.4
2018-Feb-16 07:00N 35°32' E 139°58'612.5
2018-Feb-16 06:31N 35°35' E 140°04'1 2.8
2018-Feb-16 06:00N 35°37' E 140°05'0 0.0
2018-Feb-16 05:28N 35°37' E 140°05'0 0.0
2018-Feb-16 04:52N 35°37' E 140°05'0 0.0
2018-Feb-16 04:28N 35°37' E 140°05'0 0.0
2018-Feb-16 03:58N 35°37' E 140°05'0 0.0
2018-Feb-16 03:28N 35°37' E 140°05'0 0.0
2018-Feb-16 02:58N 35°37' E 140°05'0 0.0
2018-Feb-16 02:28N 35°37' E 140°05'0 0.0
2018-Feb-16 01:58N 35°37' E 140°05'0 0.0
2018-Feb-16 01:30N 35°37' E 140°05'1 1.1
2018-Feb-16 01:00N 35°36' E 140°05'3 6.6
2018-Feb-16 00:30N 35°34' E 140°02'4 8.1
2018-Feb-16 00:00N 35°32' E 139°58'510.5
2018-Feb-15 23:30N 35°29' E 139°53'611.0
2018-Feb-15 23:00N 35°25' E 139°48'510.7
2018-Feb-15 22:30N 35°21' E 139°45'510.2
2018-Feb-15 22:01N 35°16' E 139°47'610.9
2018-Feb-15 21:29N 35°10' E 139°47'910.6
2018-Feb-15 20:39N 35°03' E 139°40'211.1
2018-Feb-15 20:29N 35°02' E 139°38'3412.0
2018-Feb-15 17:42N 34°42' E 139°06'210.9
2018-Feb-15 17:29N 34°40' E 139°03'710.5
2018-Feb-15 16:49N 34°35' E 138°57'2311.8
2018-Feb-15 14:51N 34°34' E 138°29'8311.4
2018-Feb-15 07:34N 34°42' E 136°49'112.2
2018-Feb-15 07:29N 34°43' E 136°48'611.8
2018-Feb-15 07:00N 34°48' E 136°46'611.8
2018-Feb-15 06:30N 34°54' E 136°46'611.5
2018-Feb-15 06:00N 34°59' E 136°49'510.0
2018-Feb-15 05:31N 35°03' E 136°53'0 0.1
2018-Feb-15 05:00N 35°03' E 136°53'0 0.0
2018-Feb-15 04:30N 35°03' E 136°53'0 0.0
2018-Feb-15 04:00N 35°03' E 136°53'0 0.0
2018-Feb-15 03:30N 35°03' E 136°53'0 0.0
2018-Feb-15 03:00N 35°03' E 136°53'0 0.0
2018-Feb-15 02:30N 35°03' E 136°53'1 2.9
2018-Feb-15 02:00N 35°04' E 136°52'1 1.1
2018-Feb-15 01:28N 35°04' E 136°51'0 0.0
2018-Feb-15 00:58N 35°04' E 136°51'0 0.0
2018-Feb-15 00:28N 35°04' E 136°51'0 0.0
2018-Feb-14 23:58N 35°04' E 136°51'0 0.0
2018-Feb-14 23:28N 35°04' E 136°51'0 0.0
2018-Feb-14 22:58N 35°04' E 136°51'0 0.0
2018-Feb-14 22:28N 35°04' E 136°51'0 0.1
2018-Feb-14 21:58N 35°04' E 136°51'0 0.0
2018-Feb-14 21:25N 35°04' E 136°51'0 0.0
2018-Feb-14 20:58N 35°04' E 136°51'0 0.0
2018-Feb-14 20:28N 35°04' E 136°51'0 0.0
2018-Feb-14 19:58N 35°04' E 136°51'0 0.0
2018-Feb-14 19:28N 35°04' E 136°51'0 0.0
2018-Feb-14 18:58N 35°04' E 136°51'0 0.0
2018-Feb-14 18:28N 35°04' E 136°51'0 0.0
2018-Feb-14 17:58N 35°04' E 136°51'0 0.0
2018-Feb-14 17:28N 35°04' E 136°51'0 0.0
2018-Feb-14 16:58N 35°04' E 136°51'0 0.0
2018-Feb-14 16:28N 35°04' E 136°51'0 0.0
2018-Feb-14 15:58N 35°04' E 136°51'0 0.0
2018-Feb-14 15:28N 35°04' E 136°51'0 0.0
2018-Feb-14 14:58N 35°04' E 136°51'0 0.0
2018-Feb-14 14:28N 35°04' E 136°51'0 0.0
2018-Feb-14 13:58N 35°04' E 136°51'0 0.0
2018-Feb-14 13:28N 35°04' E 136°51'0 0.0
2018-Feb-14 12:58N 35°04' E 136°51'0 0.0
2018-Feb-14 12:28N 35°04' E 136°51'0 0.0
2018-Feb-14 11:58N 35°04' E 136°51'0 0.0
2018-Feb-14 11:28N 35°04' E 136°51'0 0.0
2018-Feb-14 10:58N 35°04' E 136°51'0 0.0
2018-Feb-14 10:28N 35°04' E 136°51'0 0.0
2018-Feb-14 09:58N 35°04' E 136°51'0 0.0
2018-Feb-14 09:28N 35°04' E 136°51'0 0.0
2018-Feb-14 08:58N 35°04' E 136°51'0 0.0
2018-Feb-14 08:28N 35°04' E 136°51'0 0.0
2018-Feb-14 07:58N 35°04' E 136°51'0 0.0
2018-Feb-14 07:28N 35°04' E 136°51'0 0.0
2018-Feb-14 06:58N 35°04' E 136°51'0 0.0
2018-Feb-14 06:28N 35°04' E 136°51'0 0.0
2018-Feb-14 05:58N 35°04' E 136°51'0 0.0
2018-Feb-14 05:28N 35°04' E 136°51'0 0.0
2018-Feb-14 04:58N 35°04' E 136°51'0 0.0
2018-Feb-14 04:28N 35°04' E 136°51'0 0.0
2018-Feb-14 03:55N 35°04' E 136°51'0 0.0
2018-Feb-14 03:28N 35°04' E 136°51'0 0.0
2018-Feb-14 02:58N 35°04' E 136°51'0 0.0
2018-Feb-14 02:28N 35°04' E 136°51'0 0.0
2018-Feb-14 01:55N 35°04' E 136°51'0 0.0
2018-Feb-14 01:28N 35°04' E 136°51'0 0.0
2018-Feb-14 00:58N 35°04' E 136°51'0 0.0
2018-Feb-14 00:28N 35°04' E 136°51'0 0.0
2018-Feb-13 23:55N 35°04' E 136°51'0 0.0
2018-Feb-13 23:28N 35°04' E 136°51'0 0.0
2018-Feb-13 22:58N 35°04' E 136°51'1 1.7
2018-Feb-13 22:31N 35°03' E 136°52'510.5
2018-Feb-13 22:00N 34°59' E 136°48'1 1.2
2018-Feb-13 21:30N 34°59' E 136°48'0 0.0
2018-Feb-13 21:00N 34°59' E 136°48'0 0.0
2018-Feb-13 20:30N 34°59' E 136°48'0 0.0
2018-Feb-13 20:00N 34°59' E 136°48'0 0.0
2018-Feb-13 19:30N 34°59' E 136°48'0 0.0
2018-Feb-13 19:00N 34°59' E 136°48'0 0.0
2018-Feb-13 18:30N 34°59' E 136°48'0 0.5
2018-Feb-13 18:00N 34°58' E 136°48'510.7
2018-Feb-13 17:31N 34°53' E 136°47'611.3
2018-Feb-13 17:00N 34°47' E 136°48'611.2
2018-Feb-13 16:31N 34°42' E 136°50'101 7.8
2018-Feb-13 03:31N 33°47' E 135°07'212.1
2018-Feb-13 03:22N 33°49' E 135°06'512.3
2018-Feb-13 02:56N 33°52' E 135°01'512.0
2018-Feb-13 02:30N 33°56' E 134°57'1012.0
2018-Feb-13 01:41N 34°04' E 134°49'312.0
2018-Feb-13 01:28N 34°06' E 134°47'1212.6
2018-Feb-13 00:32N 34°15' E 134°38'211.7
2018-Feb-13 00:20N 34°16' E 134°36'411.4
2018-Feb-13 00:00N 34°18' E 134°32'611.6
2018-Feb-12 23:30N 34°20' E 134°25'85 9.5
2018-Feb-12 14:31N 33°60' E 132°45'0 8.8
2018-Feb-12 14:30N 33°60' E 132°45'510.6
2018-Feb-12 14:00N 33°56' E 132°41'511.1
2018-Feb-12 13:30N 33°53' E 132°35'911.2
2018-Feb-12 12:40N 33°50' E 132°24'211.4
2018-Feb-12 12:30N 33°50' E 132°22'1511.4
2018-Feb-12 11:14N 33°46' E 132°05'310.9
2018-Feb-12 11:00N 33°46' E 132°02'611.4
2018-Feb-12 10:29N 33°51' E 131°58'611.5
2018-Feb-12 09:59N 33°56' E 131°56'1 0.1
2018-Feb-11 19:01N 33°57' E 131°56'0 0.0
2018-Feb-11 18:31N 33°57' E 131°56'0 0.0
2018-Feb-11 18:25N 33°57' E 131°56'0 0.0
2018-Feb-11 17:55N 33°57' E 131°56'0 0.0
2018-Feb-11 17:25N 33°57' E 131°56'0 0.0
2018-Feb-11 16:49N 33°57' E 131°56'0 0.0
2018-Feb-11 15:25N 33°57' E 131°56'0 0.0
2018-Feb-11 13:01N 33°57' E 131°56'0 0.0
2018-Feb-10 22:15N 33°57' E 131°56'1 1.5
2018-Feb-10 21:45N 33°57' E 131°55'0 0.0
2018-Feb-10 21:27N 33°57' E 131°55'0 0.0
2018-Feb-10 20:57N 33°57' E 131°55'0 0.0
2018-Feb-10 20:27N 33°57' E 131°55'0 0.0
2018-Feb-10 19:39N 33°57' E 131°55'0 0.0
2018-Feb-10 19:21N 33°57' E 131°55'0 0.1
2018-Feb-10 18:51N 33°57' E 131°55'0 0.1
2018-Feb-10 18:15N 33°57' E 131°55'0 0.1
2018-Feb-10 17:51N 33°57' E 131°55'0 0.0
2018-Feb-10 17:27N 33°57' E 131°55'0 0.0
2018-Feb-10 16:51N 33°57' E 131°55'0 0.2
2018-Feb-10 16:15N 33°57' E 131°55'0 0.2
2018-Feb-10 15:51N 33°57' E 131°55'0 0.1
2018-Feb-10 15:21N 33°57' E 131°55'0 0.0
2018-Feb-10 14:21N 33°57' E 131°55'0 0.0
2018-Feb-10 13:51N 33°57' E 131°55'0 0.0
2018-Feb-10 13:27N 33°57' E 131°55'0 0.0
2018-Feb-10 12:57N 33°57' E 131°55'0 0.0
2018-Feb-10 12:27N 33°57' E 131°55'0 0.0
2018-Feb-10 11:57N 33°57' E 131°55'0 0.0
2018-Feb-10 11:27N 33°57' E 131°55'0 0.0
2018-Feb-10 10:51N 33°57' E 131°55'0 0.0
2018-Feb-10 10:27N 33°57' E 131°55'0 0.1
2018-Feb-10 09:27N 33°57' E 131°55'0 0.1
2018-Feb-10 08:45N 33°57' E 131°55'0 0.1
2018-Feb-10 08:21N 33°57' E 131°55'35 0.7
2018-Feb-08 07:00N 34°18' E 132°28'1 0.3
2018-Feb-08 02:30N 34°18' E 132°29'611.2
2018-Feb-08 02:01N 34°13' E 132°30'710.3
2018-Feb-08 01:21N 34°07' E 132°27'510.0
2018-Feb-08 00:49N 34°03' E 132°31'310.4
2018-Feb-08 00:31N 34°03' E 132°34'611.8
2018-Feb-08 00:00N 34°06' E 132°41'  

Dump ship's entire track history